Time;durP1;ratioP1;P1;durP2;ratioP2;P2;SDS_P1;SDS_P2;PMS_P1;PMS_P2;Temp;Humidity;BMP_temperature;BMP_pressure;BME280_temperature;BME280_humidity;BME280_pressure;Samples;Min_cycle;Max_cycle;Signal;HPM_P1;HPM_P2
2023/10/26 05:13:42;;;;;;;;;;;;;;;6.41;100.00;98589.10;1861572;76;20129;-68
2023/10/26 05:16:10;;;;;;;;;;;;;;;6.35;100.00;98582.13;1820525;78;20297;-71
2023/10/26 05:18:37;;;;;;;;;;;;;;;6.37;100.00;98593.66;1811427;77;20504;-69
2023/10/26 05:21:04;;;;;;;;;;;;;;;6.39;100.00;98593.11;1806674;78;20107;-73
2023/10/26 05:23:31;;;;;;;;;;;;;;;6.43;100.00;98607.47;1812515;78;20098;-71
2023/10/26 05:25:59;;;;;;;;;;;;;;;6.47;100.00;98609.41;1814542;78;20133;-64
2023/10/26 05:28:28;;;;;;;;;;;;;;;6.50;100.00;98610.05;1812084;78;20163;-76
2023/10/26 05:30:54;;;;;;;;;;;;;;;6.55;100.00;98612.35;1818641;77;20446;-68
2023/10/26 05:33:21;;;;;;;;;;;;;;;6.60;100.00;98620.66;1816545;78;20082;-80
2023/10/26 05:35:47;;;;;;;;;;;;;;;6.63;100.00;98618.72;1823399;78;20109;-68
2023/10/26 05:38:18;;;;;;;;;;;;;;;6.65;100.00;98620.74;1817336;78;20095;-79
2023/10/26 05:40:53;;;;;;;;;;;;;;;6.68;100.00;98622.31;1812722;78;20173;-76
2023/10/26 05:43:20;;;;;;;;;;;;;;;6.69;100.00;98623.51;1810390;78;20107;-69
2023/10/26 05:45:48;;;;;;;;;;;;;;;6.72;100.00;98621.19;1821528;78;20107;-68
2023/10/26 05:48:16;;;;;;;;;;;;;;;6.75;100.00;98621.00;1813093;77;20231;-65
2023/10/26 05:50:43;;;;;;;;;;;;;;;6.80;100.00;98620.22;1792613;78;20193;-65
2023/10/26 06:54:23;;;;;;;;;;;;;;;7.23;100.00;98655.84;1807362;79;20171;-78
2023/10/26 06:56:59;;;;;;;;;;;;;;;7.23;100.00;98650.66;1808923;79;20460;-72
2023/10/26 07:47:38;;;;;;;;;;;;;;;7.46;100.00;98669.90;1797412;79;20212;-66
2023/10/26 07:50:06;;;;;;;;;;;;;;;7.48;100.00;98667.21;1807013;77;20103;-69
2023/10/26 09:06:11;;;;;;;;;;;;;;;8.04;100.00;98727.77;1767864;81;20135;-67
2023/10/26 09:08:38;;;;;;;;;;;;;;;8.08;100.00;98723.67;1761435;79;20512;-68
2023/10/26 09:11:26;;;;;;;;;;;;;;;8.11;100.00;98717.82;1749415;79;20128;-65
2023/10/26 09:13:50;;;;;;;;;;;;;;;8.13;100.00;98715.95;1730786;81;21154;-65
2023/10/26 09:16:16;;;;;;;;;;;;;;;8.15;100.00;98710.20;1763291;81;20408;-66
2023/10/26 09:18:50;;;;;;;;;;;;;;;8.16;100.00;98713.63;1763806;81;20153;-67
2023/10/26 09:21:16;;;;;;;;;;;;;;;8.18;100.00;98716.48;1748954;81;20118;-72
2023/10/26 09:23:45;;;;;;;;;;;;;;;8.22;100.00;98715.81;1785274;80;20357;-68
2023/10/26 09:26:11;;;;;;;;;;;;;;;8.24;100.00;98714.77;1742850;82;20160;-71
2023/10/26 09:28:52;;;;;;;;;;;;;;;8.31;100.00;98716.49;1746018;82;20106;-72
2023/10/26 09:31:19;;;;;;;;;;;;;;;8.33;100.00;98718.08;1742135;82;20120;-72
2023/10/26 09:33:46;;;;;;;;;;;;;;;8.40;100.00;98711.19;1737463;82;20143;-72
2023/10/26 09:36:15;;;;;;;;;;;;;;;8.42;100.00;98707.52;1728503;81;20160;-68
2023/10/26 09:38:41;;;;;;;;;;;;;;;8.42;100.00;98710.11;1744988;81;20420;-65
2023/10/26 09:41:15;;;;;;;;;;;;;;;8.43;100.00;98706.59;1755439;81;20166;-74
2023/10/26 09:43:41;;;;;;;;;;;;;;;8.46;100.00;98701.66;1736806;81;20148;-65
2023/10/26 09:46:09;;;;;;;;;;;;;;;8.46;100.00;98702.95;1774908;79;20133;-71
2023/10/26 09:48:35;;;;;;;;;;;;;;;8.47;100.00;98698.13;1767910;79;20126;-70
2023/10/26 09:51:03;;;;;;;;;;;;;;;8.49;100.00;98701.45;1772525;79;20159;-69
2023/10/26 09:53:35;;;;;;;;;;;;;;;8.51;100.00;98699.58;1768651;79;20153;-68
2023/10/26 09:56:02;;;;;;;;;;;;;;;8.51;100.00;98699.58;1767742;81;20157;-68
2023/10/26 09:58:33;;;;;;;;;;;;;;;8.50;100.00;98710.89;1739100;83;20160;-66
2023/10/26 10:01:00;;;;;;;;;;;;;;;8.49;100.00;98712.66;1760996;79;20137;-69
2023/10/26 10:49:08;;;;;;;;;;;;;;;8.77;100.00;98736.72;1786271;79;20417;-73
2023/10/26 10:51:37;;;;;;;;;;;;;;;8.79;100.00;98733.09;1777002;81;20164;-71
2023/10/26 10:54:13;;;;;;;;;;;;;;;8.82;100.00;98749.71;1776507;81;20123;-72
2023/10/26 10:56:42;;;;;;;;;;;;;;;8.83;100.00;98741.45;1776380;80;20114;-69
2023/10/26 10:59:27;;;;;;;;;;;;;;;8.83;100.00;98742.76;1777936;81;20107;-72
2023/10/26 11:02:08;;;;;;;;;;;;;;;8.84;100.00;98740.52;1771194;81;20184;-68
2023/10/26 11:04:35;;;;;;;;;;;;;;;8.83;100.00;98745.35;1782611;79;20185;-67
2023/10/26 11:07:01;;;;;;;;;;;;;;;8.84;100.00;98745.25;1767604;79;20160;-73
2023/10/26 11:45:29;;;;;;;;;;;;;;;8.76;100.00;98761.02;1785455;80;20409;-66
2023/10/26 11:47:57;;;;;;;;;;;;;;;8.74;100.00;98758.52;1739447;81;20218;-67
2023/10/26 11:50:29;;;;;;;;;;;;;;;8.74;100.00;98757.70;1770981;79;20133;-72
2023/10/26 11:52:58;;;;;;;;;;;;;;;8.75;100.00;98758.06;1779958;80;20133;-68
2023/10/26 11:55:25;;;;;;;;;;;;;;;8.75;100.00;98762.78;1778389;80;20145;-71
2023/10/26 11:57:52;;;;;;;;;;;;;;;8.79;100.00;98764.23;1775290;80;20439;-69
2023/10/26 12:00:19;;;;;;;;;;;;;;;8.80;100.00;98765.03;1777040;80;20406;-65
2023/10/26 12:02:46;;;;;;;;;;;;;;;8.81;100.00;98770.58;1779191;80;20149;-69
2023/10/26 12:05:15;;;;;;;;;;;;;;;8.82;100.00;98763.98;1738957;81;20092;-69
2023/10/26 12:07:45;;;;;;;;;;;;;;;8.81;100.00;98761.03;1757379;81;20130;-65
2023/10/26 12:10:12;;;;;;;;;;;;;;;8.80;100.00;98758.54;1760836;81;20111;-72
2023/10/26 12:12:39;;;;;;;;;;;;;;;8.75;100.00;98760.19;1756538;81;20130;-70
2023/10/26 12:15:06;;;;;;;;;;;;;;;8.69;100.00;98761.90;1760768;81;20091;-71
2023/10/26 12:17:33;;;;;;;;;;;;;;;8.61;100.00;98753.80;1755914;81;20480;-66
2023/10/26 12:20:00;;;;;;;;;;;;;;;8.56;100.00;98759.30;1757225;81;20127;-66
2023/10/26 12:22:28;;;;;;;;;;;;;;;8.55;100.00;98763.30;1755782;81;20126;-62
2023/10/26 12:24:56;;;;;;;;;;;;;;;8.54;100.00;98761.17;1751333;81;20107;-64
